Time;durP1;ratioP1;P1;durP2;ratioP2;P2;SDS_P1;SDS_P2;PMS_P1;PMS_P2;Temp;Humidity;BMP_temperature;BMP_pressure;BME280_temperature;BME280_humidity;BME280_pressure;Samples;Min_cycle;Max_cycle;Signal;HPM_P1;HPM_P2
2021/08/06 00:01:44;;;;;;;2.92;2.83;;;18.50;77.00;;;;;;5035324;28;20033;-85
2021/08/06 00:04:10;;;;;;;2.80;2.70;;;18.50;77.00;;;;;;5033617;28;20502;-85
2021/08/06 00:06:38;;;;;;;2.80;2.70;;;18.50;77.10;;;;;;5033923;28;20036;-85
2021/08/06 00:09:04;;;;;;;6.78;3.42;;;18.50;77.10;;;;;;5031654;28;20026;-86
2021/08/06 00:11:31;;;;;;;3.28;3.17;;;18.50;77.90;;;;;;5033276;28;20030;-85
2021/08/06 00:13:57;;;;;;;10.18;3.92;;;18.50;77.20;;;;;;5050180;28;20033;-85
2021/08/06 00:16:23;;;;;;;3.55;3.40;;;18.50;77.20;;;;;;5033389;28;20033;-86
2021/08/06 00:18:50;;;;;;;4.35;4.15;;;18.40;77.10;;;;;;5034873;28;20041;-87
2021/08/06 00:21:17;;;;;;;4.13;3.92;;;18.40;77.10;;;;;;5034648;28;20044;-86
2021/08/06 00:23:44;;;;;;;3.53;3.38;;;18.40;77.10;;;;;;5029209;28;20382;-85
2021/08/06 00:26:13;;;;;;;3.88;3.58;;;18.40;77.10;;;;;;5035979;28;20021;-86
2021/08/06 00:28:40;;;;;;;3.55;3.38;;;18.50;77.20;;;;;;5034994;28;20030;-86
2021/08/06 00:31:06;;;;;;;3.65;3.45;;;18.50;77.20;;;;;;5033121;28;20038;-85
2021/08/06 00:33:32;;;;;;;3.38;3.28;;;18.50;77.10;;;;;;5034777;28;20041;-85
2021/08/06 00:35:58;;;;;;;23.45;3.88;;;18.50;77.10;;;;;;5029386;28;20030;-86
2021/08/06 00:38:24;;;;;;;4.05;3.85;;;18.50;77.10;;;;;;5033967;28;20380;-84
2021/08/06 00:40:50;;;;;;;4.10;3.90;;;18.50;77.20;;;;;;5032327;28;20036;-87
2021/08/06 00:43:16;;;;;;;3.92;3.72;;;18.50;77.20;;;;;;5015593;28;20044;-85
2021/08/06 00:45:42;;;;;;;3.28;3.17;;;18.40;77.10;;;;;;5032481;28;20498;-85
2021/08/06 00:48:09;;;;;;;3.22;3.13;;;18.40;77.20;;;;;;5032100;28;20044;-86
2021/08/06 00:50:35;;;;;;;3.47;3.35;;;18.40;77.30;;;;;;5031267;28;20379;-86
2021/08/06 00:53:01;;;;;;;3.78;3.58;;;18.40;77.30;;;;;;5050203;28;20036;-86
2021/08/06 00:55:27;;;;;;;4.05;3.85;;;18.40;77.30;;;;;;5016296;28;20042;-85
2021/08/06 00:57:53;;;;;;;3.90;3.70;;;18.40;77.40;;;;;;5034648;28;20390;-86
2021/08/06 01:00:19;;;;;;;4.00;3.80;;;18.30;77.40;;;;;;5029591;28;20053;-86
2021/08/06 01:03:06;;;;;;;3.95;3.75;;;18.30;77.40;;;;;;5030228;28;20037;-85
2021/08/06 01:05:46;;;;;;;7.38;4.05;;;18.30;77.50;;;;;;5044579;28;20028;-84
2021/08/06 01:08:20;;;;;;;3.85;3.65;;;18.30;77.50;;;;;;5034873;28;20029;-86
2021/08/06 01:11:00;;;;;;;3.60;3.45;;;18.30;77.50;;;;;;5034728;28;20033;-85
2021/08/06 01:13:32;;;;;;;3.47;3.35;;;18.30;77.40;;;;;;5021795;28;20026;-86
2021/08/06 01:16:00;;;;;;;4.65;4.35;;;18.30;77.50;;;;;;5035099;28;20026;-85
2021/08/06 01:18:27;;;;;;;4.07;3.80;;;18.30;77.50;;;;;;5020917;28;20025;-82
2021/08/06 01:20:54;;;;;;;4.20;4.00;;;18.30;77.50;;;;;;5032094;28;20033;-85
2021/08/06 01:23:29;;;;;;;4.10;3.90;;;18.30;77.50;;;;;;5004207;28;20040;-85
2021/08/06 01:26:09;;;;;;;4.35;4.15;;;18.20;77.50;;;;;;5055236;28;20041;-88
2021/08/06 01:28:37;;;;;;;3.95;3.75;;;18.20;77.60;;;;;;5036793;28;20036;-86
2021/08/06 01:31:03;;;;;;;3.72;3.55;;;18.20;77.60;;;;;;5037638;28;20021;-85
2021/08/06 01:33:30;;;;;;;3.65;3.45;;;18.10;77.70;;;;;;5037954;28;20056;-85
2021/08/06 01:35:56;;;;;;;3.72;3.55;;;18.10;77.70;;;;;;5016764;28;20025;-82
2021/08/06 01:38:22;;;;;;;3.25;3.15;;;18.10;77.70;;;;;;5037826;28;20406;-86
2021/08/06 01:41:14;;;;;;;3.75;3.55;;;18.10;77.70;;;;;;5064519;28;20087;-86
2021/08/06 01:44:28;;;;;;;3.35;3.20;;;18.10;77.80;;;;;;5037939;28;20482;-86
2021/08/06 01:46:55;;;;;;;3.35;3.22;;;18.10;77.80;;;;;;4977198;28;20037;-85
2021/08/06 01:49:31;;;;;;;3.85;3.65;;;18.10;77.70;;;;;;4955799;28;20046;-86
2021/08/06 01:52:05;;;;;;;3.83;3.63;;;18.10;77.70;;;;;;4974912;28;20519;-86
2021/08/06 01:54:31;;;;;;;3.63;3.45;;;18.10;77.70;;;;;;4959354;28;20030;-86
2021/08/06 01:56:58;;;;;;;3.95;3.75;;;18.10;77.80;;;;;;4956178;28;20038;-86
2021/08/06 01:59:25;;;;;;;3.50;3.35;;;18.00;78.50;;;;;;4973156;28;20043;-85
2021/08/06 02:01:52;;;;;;;4.05;3.85;;;18.10;77.80;;;;;;4989635;28;20400;-85
2021/08/06 02:04:18;;;;;;;3.75;3.55;;;18.00;77.80;;;;;;4983687;28;20062;-89
2021/08/06 02:06:44;;;;;;;4.28;4.07;;;18.00;77.80;;;;;;4953956;28;20480;-86
2021/08/06 02:09:19;;;;;;;4.57;4.38;;;18.10;77.80;;;;;;4971492;28;20038;-85
2021/08/06 02:11:46;;;;;;;4.30;4.10;;;18.00;77.90;;;;;;4956178;28;20034;-85
2021/08/06 02:14:12;;;;;;;4.13;3.92;;;18.00;77.80;;;;;;4972037;28;20034;-86
2021/08/06 02:16:40;;;;;;;4.25;4.05;;;18.00;77.80;;;;;;4970754;28;20035;-86
2021/08/06 02:19:06;;;;;;;3.78;3.58;;;18.00;77.90;;;;;;4967008;28;20046;-82
2021/08/06 02:21:33;;;;;;;3.63;3.45;;;18.00;77.90;;;;;;4967455;28;20038;-86
2021/08/06 02:24:01;;;;;;;3.67;3.47;;;18.00;77.90;;;;;;5007287;28;20034;-85
2021/08/06 02:26:27;;;;;;;3.85;3.65;;;17.90;77.80;;;;;;5030614;28;20026;-85
2021/08/06 02:28:53;;;;;;;3.70;3.50;;;17.90;77.90;;;;;;5029494;28;20367;-84
2021/08/06 02:31:20;;;;;;;3.58;3.38;;;17.90;77.90;;;;;;5027440;28;20048;-85
2021/08/06 02:33:46;;;;;;;3.35;3.25;;;17.80;77.80;;;;;;5027906;28;20041;-86
2021/08/06 02:36:12;;;;;;;3.75;3.58;;;17.80;77.90;;;;;;5028226;28;20037;-85
2021/08/06 02:38:39;;;;;;;3.78;3.60;;;17.80;78.00;;;;;;5048356;28;20045;-85
2021/08/06 02:41:05;;;;;;;3.65;3.47;;;17.80;78.00;;;;;;5037930;28;20053;-84
2021/08/06 02:43:31;;;;;;;4.10;3.90;;;17.70;78.70;;;;;;5036718;28;20026;-85
2021/08/06 02:45:57;;;;;;;3.92;3.72;;;17.70;78.00;;;;;;5040320;28;20032;-86
2021/08/06 02:48:23;;;;;;;3.78;3.58;;;17.70;78.00;;;;;;5047728;28;20036;-85
2021/08/06 02:50:49;;;;;;;3.67;3.47;;;17.70;78.00;;;;;;5047871;28;20057;-89
2021/08/06 02:53:15;;;;;;;5.18;4.07;;;17.70;78.00;;;;;;5038045;28;20041;-86
2021/08/06 02:55:41;;;;;;;4.18;3.97;;;17.70;78.00;;;;;;5036356;28;20378;-87
2021/08/06 02:58:07;;;;;;;4.07;3.88;;;17.70;78.00;;;;;;5036381;28;20037;-86
2021/08/06 03:00:34;;;;;;;4.35;4.15;;;17.70;78.00;;;;;;5034346;28;20052;-85
2021/08/06 03:03:00;;;;;;;4.13;3.92;;;17.70;78.00;;;;;;5033280;28;20386;-86
2021/08/06 03:05:26;;;;;;;4.10;3.90;;;17.70;78.00;;;;;;5035144;28;20057;-86
2021/08/06 03:07:52;;;;;;;4.15;3.95;;;17.70;78.00;;;;;;5037375;28;20033;-86
2021/08/06 03:10:19;;;;;;;4.57;3.80;;;17.70;78.00;;;;;;5034943;28;20029;-85
2021/08/06 03:12:46;;;;;;;5.60;4.03;;;17.70;78.00;;;;;;5016300;28;20470;-86
2021/08/06 03:15:13;;;;;;;4.07;3.88;;;17.70;78.00;;;;;;5033232;28;20025;-86
2021/08/06 03:17:41;;;;;;;3.90;3.70;;;17.70;78.00;;;;;;5032016;28;20041;-83
2021/08/06 03:20:14;;;;;;;4.38;4.18;;;17.70;78.00;;;;;;5036620;28;20517;-86
2021/08/06 03:22:40;;;;;;;3.80;3.60;;;17.60;77.90;;;;;;5034616;28;20030;-86
2021/08/06 03:25:07;;;;;;;3.97;3.78;;;17.60;77.90;;;;;;5036064;28;20025;-85
2021/08/06 03:27:33;;;;;;;3.67;3.50;;;17.70;78.10;;;;;;5018324;28;20395;-85
2021/08/06 03:30:00;;;;;;;3.58;3.42;;;17.60;78.00;;;;;;5032992;28;20032;-85
2021/08/06 03:32:26;;;;;;;11.77;3.65;;;17.60;78.00;;;;;;5033955;28;20053;-86
2021/08/06 03:34:52;;;;;;;3.10;3.00;;;17.70;78.00;;;;;;5032915;28;20041;-86
2021/08/06 03:37:18;;;;;;;15.25;3.22;;;17.70;78.00;;;;;;5035553;28;20390;-85
2021/08/06 03:39:44;;;;;;;3.40;3.30;;;17.70;78.00;;;;;;5034661;28;20037;-85
2021/08/06 03:42:10;;;;;;;3.25;3.15;;;17.70;77.90;;;;;;5034435;28;20028;-85
2021/08/06 03:44:36;;;;;;;3.88;3.67;;;17.70;77.90;;;;;;5032540;28;20040;-85
2021/08/06 03:47:03;;;;;;;3.60;3.45;;;17.70;77.90;;;;;;5035550;28;20037;-85
2021/08/06 03:49:29;;;;;;;3.83;3.63;;;17.80;77.80;;;;;;5035469;28;20037;-85
2021/08/06 03:51:55;;;;;;;3.72;3.55;;;17.80;78.60;;;;;;5032722;28;20022;-85
2021/08/06 03:54:21;;;;;;;4.45;4.25;;;17.80;77.90;;;;;;5032521;28;20032;-86
2021/08/06 03:56:47;;;;;;;4.15;3.95;;;17.80;77.80;;;;;;5030931;28;20057;-85
2021/08/06 03:59:13;;;;;;;4.25;4.05;;;17.80;77.80;;;;;;5044167;28;20025;-86
2021/08/06 04:01:39;;;;;;;3.92;3.72;;;17.80;77.80;;;;;;5034677;28;20375;-85
2021/08/06 04:04:07;;;;;;;3.53;3.38;;;17.80;77.80;;;;;;5034842;28;20029;-86
2021/08/06 04:06:34;;;;;;;3.85;3.58;;;17.80;77.80;;;;;;5032761;28;20406;-85
2021/08/06 04:09:00;;;;;;;3.38;3.15;;;17.80;77.80;;;;;;5032650;28;20021;-87
2021/08/06 04:11:26;;;;;;;3.83;3.63;;;17.80;77.80;;;;;;5032837;28;20044;-86
2021/08/06 04:13:52;;;;;;;3.47;3.35;;;17.80;77.80;;;;;;5049483;28;20033;-85
2021/08/06 04:16:18;;;;;;;3.85;3.65;;;17.80;77.90;;;;;;5034115;28;20041;-86
2021/08/06 04:18:45;;;;;;;3.28;3.17;;;17.80;78.00;;;;;;5033748;28;20026;-85
2021/08/06 04:21:11;;;;;;;3.20;3.00;;;17.80;78.00;;;;;;5033738;28;20033;-86
2021/08/06 04:23:37;;;;;;;3.28;3.17;;;17.80;78.00;;;;;;5031711;28;20596;-87
2021/08/06 04:26:03;;;;;;;3.00;2.90;;;17.80;78.00;;;;;;5035831;28;20041;-86
2021/08/06 04:28:29;;;;;;;2.95;2.85;;;17.80;78.10;;;;;;5038979;28;20081;-87
2021/08/06 04:30:58;;;;;;;3.70;3.47;;;17.70;78.10;;;;;;5038991;28;20048;-87
2021/08/06 04:33:24;;;;;;;4.82;3.17;;;17.70;78.10;;;;;;5031560;28;20490;-86
2021/08/06 04:35:50;;;;;;;2.80;2.70;;;17.70;78.10;;;;;;5029663;28;20042;-86
2021/08/06 04:38:16;;;;;;;7.15;3.08;;;17.70;78.10;;;;;;5036377;28;20493;-86
2021/08/06 04:40:42;;;;;;;3.05;2.95;;;17.70;78.10;;;;;;5033448;28;20057;-85
2021/08/06 04:43:08;;;;;;;3.35;3.15;;;17.70;78.10;;;;;;5033667;28;20502;-85
2021/08/06 04:45:34;;;;;;;3.35;3.25;;;17.70;78.10;;;;;;5033971;28;20040;-85
2021/08/06 04:48:03;;;;;;;3.35;3.25;;;17.70;78.20;;;;;;5034987;28;20044;-85
2021/08/06 04:50:29;;;;;;;3.58;3.42;;;17.70;78.20;;;;;;5036947;28;20032;-86
2021/08/06 04:52:57;;;;;;;3.65;3.45;;;17.70;78.20;;;;;;5053421;28;20463;-85
2021/08/06 04:55:23;;;;;;;3.75;3.55;;;17.70;78.20;;;;;;5038499;28;20050;-85
2021/08/06 04:57:51;;;;;;;2.92;2.83;;;17.60;78.20;;;;;;5037311;28;20405;-85
2021/08/06 05:00:17;;;;;;;3.42;3.22;;;17.70;78.30;;;;;;5036969;28;20068;-85
2021/08/06 05:02:44;;;;;;;3.75;3.45;;;17.70;78.30;;;;;;5033389;28;20374;-85
2021/08/06 05:05:10;;;;;;;3.47;3.35;;;17.70;78.30;;;;;;5039123;28;20037;-86
2021/08/06 05:07:36;;;;;;;3.97;3.78;;;17.60;78.20;;;;;;5038495;28;20068;-85
2021/08/06 05:10:03;;;;;;;3.53;3.35;;;17.70;78.30;;;;;;5035244;28;20049;-86
2021/08/06 05:12:29;;;;;;;3.88;3.67;;;17.70;78.30;;;;;;5036984;28;20041;-86
2021/08/06 05:14:55;;;;;;;3.53;3.38;;;17.60;78.30;;;;;;5034587;28;20462;-86
2021/08/06 05:17:21;;;;;;;3.55;3.40;;;17.70;78.30;;;;;;5036869;28;20037;-86
2021/08/06 05:19:47;;;;;;;3.67;3.50;;;17.70;78.40;;;;;;5020896;28;20487;-85
2021/08/06 05:22:13;;;;;;;3.25;3.15;;;17.60;78.30;;;;;;5038172;28;20030;-86
2021/08/06 05:24:39;;;;;;;3.63;3.42;;;17.70;78.40;;;;;;5038023;28;20044;-88
2021/08/06 05:27:05;;;;;;;3.25;3.15;;;17.70;78.30;;;;;;5033857;28;20030;-87
2021/08/06 05:29:33;;;;;;;3.53;3.38;;;17.70;78.30;;;;;;5049382;28;20036;-87
2021/08/06 05:31:59;;;;;;;3.80;3.60;;;17.70;78.30;;;;;;5041391;28;20041;-87
2021/08/06 05:34:25;;;;;;;4.07;3.88;;;17.80;78.20;;;;;;5039875;28;20412;-85
2021/08/06 05:36:51;;;;;;;4.25;4.05;;;17.90;78.20;;;;;;5020071;28;20052;-85
2021/08/06 05:39:17;;;;;;;4.93;4.72;;;18.00;78.10;;;;;;5036182;28;20025;-86
2021/08/06 05:41:43;;;;;;;4.55;4.35;;;18.20;78.00;;;;;;5032142;28;20033;-85
2021/08/06 05:44:09;;;;;;;3.65;3.45;;;18.30;77.70;;;;;;5054348;28;20033;-85
2021/08/06 05:46:35;;;;;;;3.22;3.13;;;18.40;77.40;;;;;;5037211;28;20041;-86
2021/08/06 05:49:01;;;;;;;3.28;3.08;;;18.50;77.30;;;;;;5034915;28;20044;-85
2021/08/06 05:51:27;;;;;;;6.47;2.92;;;18.50;77.40;;;;;;5036280;28;20037;-85
2021/08/06 05:53:53;;;;;;;2.70;2.60;;;18.50;77.50;;;;;;5033949;28;20033;-85
2021/08/06 05:56:20;;;;;;;2.60;2.50;;;18.60;77.40;;;;;;5037169;28;20036;-85
2021/08/06 05:58:46;;;;;;;2.53;2.42;;;18.60;77.20;;;;;;5035534;28;20044;-83
2021/08/06 06:01:12;;;;;;;2.50;2.40;;;18.60;77.10;;;;;;5036829;28;20072;-84
2021/08/06 06:03:38;;;;;;;3.55;3.08;;;18.50;77.20;;;;;;5037427;28;20041;-85
2021/08/06 06:06:04;;;;;;;2.60;2.50;;;18.50;77.30;;;;;;5035119;28;20040;-85
2021/08/06 06:08:31;;;;;;;2.60;2.50;;;18.40;77.30;;;;;;5034476;28;20029;-85
2021/08/06 06:10:57;;;;;;;2.20;2.10;;;18.30;77.40;;;;;;5039326;28;20363;-85
2021/08/06 06:13:23;;;;;;;2.67;2.58;;;18.30;77.50;;;;;;5036889;28;20045;-86
2021/08/06 06:15:50;;;;;;;3.30;3.10;;;18.30;77.70;;;;;;5035697;28;20502;-85
2021/08/06 06:18:16;;;;;;;4.60;3.15;;;18.30;77.70;;;;;;5035371;28;20139;-84
2021/08/06 06:20:42;;;;;;;2.50;2.40;;;18.30;77.70;;;;;;5033086;28;20049;-86
2021/08/06 06:23:08;;;;;;;2.70;2.60;;;18.30;77.70;;;;;;5037778;28;20025;-84
2021/08/06 06:25:34;;;;;;;2.78;2.67;;;18.30;77.70;;;;;;5036190;28;20052;-85
2021/08/06 06:28:05;;;;;;;2.63;2.53;;;18.30;77.60;;;;;;5035109;28;20045;-86
2021/08/06 06:30:31;;;;;;;2.78;2.67;;;18.40;77.60;;;;;;5035106;28;20036;-86
2021/08/06 06:32:58;;;;;;;2.80;2.70;;;18.40;77.50;;;;;;5033684;28;20045;-85
2021/08/06 06:35:24;;;;;;;2.55;2.45;;;18.50;77.40;;;;;;5035421;28;20036;-85
2021/08/06 06:37:50;;;;;;;2.45;2.35;;;18.50;77.40;;;;;;5036597;28;20032;-85
2021/08/06 06:40:17;;;;;;;3.15;2.95;;;18.60;77.30;;;;;;5035155;28;20042;-83
2021/08/06 06:42:44;;;;;;;2.50;2.40;;;18.60;77.20;;;;;;5018801;28;20033;-85
2021/08/06 06:45:10;;;;;;;2.58;2.47;;;18.60;77.10;;;;;;5034698;28;20025;-85
2021/08/06 06:47:37;;;;;;;2.30;2.20;;;18.70;77.20;;;;;;5015776;28;20383;-85
2021/08/06 06:50:04;;;;;;;2.40;2.30;;;18.90;77.00;;;;;;5038301;28;20474;-84
2021/08/06 06:52:30;;;;;;;2.45;2.35;;;19.10;76.70;;;;;;5036424;28;20041;-85
2021/08/06 06:54:56;;;;;;;2.20;2.10;;;19.30;76.30;;;;;;5004371;28;20038;-85
2021/08/06 06:57:22;;;;;;;2.60;2.50;;;19.50;75.90;;;;;;5035139;28;20035;-85
2021/08/06 06:59:48;;;;;;;5.05;4.80;;;19.70;75.60;;;;;;5032031;28;20383;-84
2021/08/06 07:02:14;;;;;;;3.42;3.33;;;19.80;75.20;;;;;;5037462;28;20040;-85
2021/08/06 07:04:41;;;;;;;4.03;3.83;;;19.90;75.10;;;;;;5035095;28;20433;-85
2021/08/06 07:07:07;;;;;;;4.03;3.83;;;19.90;75.10;;;;;;5017080;28;20022;-84
2021/08/06 07:09:33;;;;;;;3.83;3.63;;;19.90;75.20;;;;;;5033457;28;20036;-85
2021/08/06 07:11:59;;;;;;;4.25;4.05;;;19.80;75.30;;;;;;5032019;28;20033;-85
2021/08/06 07:14:25;;;;;;;5.55;5.32;;;19.80;75.40;;;;;;5035631;28;20037;-85
2021/08/06 07:16:51;;;;;;;5.45;5.25;;;19.70;75.60;;;;;;5036500;28;20505;-85
2021/08/06 07:19:17;;;;;;;6.75;6.45;;;19.70;75.70;;;;;;5034777;28;20049;-85
2021/08/06 07:21:48;;;;;;;7.10;6.80;;;19.70;75.70;;;;;;5035940;28;20044;-85
2021/08/06 07:24:14;;;;;;;4.03;3.83;;;19.70;75.70;;;;;;5034599;28;20041;-86
2021/08/06 07:26:40;;;;;;;2.60;2.50;;;19.80;76.50;;;;;;5030446;28;20045;-85
2021/08/06 07:29:06;;;;;;;5.28;5.07;;;19.90;75.60;;;;;;5037768;28;20051;-87
2021/08/06 07:31:32;;;;;;;5.97;3.85;;;20.00;75.30;;;;;;5033906;28;20041;-85
2021/08/06 07:33:58;;;;;;;3.08;2.97;;;20.10;75.10;;;;;;5017973;28;20486;-86
2021/08/06 07:36:24;;;;;;;3.35;3.25;;;20.10;75.00;;;;;;5035627;28;20037;-85
2021/08/06 07:38:50;;;;;;;3.00;2.90;;;20.10;75.00;;;;;;5031565;28;20391;-86
2021/08/06 07:41:16;;;;;;;3.13;3.03;;;20.10;75.00;;;;;;5019558;28;20052;-85
2021/08/06 07:43:43;;;;;;;3.30;3.10;;;20.10;75.00;;;;;;5033390;28;20486;-85
2021/08/06 07:46:09;;;;;;;2.92;2.83;;;20.10;75.00;;;;;;5033373;28;20037;-85
2021/08/06 07:48:35;;;;;;;2.67;2.58;;;20.10;75.00;;;;;;5016442;28;20035;-85
2021/08/06 07:51:01;;;;;;;3.28;3.17;;;20.20;75.00;;;;;;5030776;28;20406;-85
2021/08/06 07:53:27;;;;;;;2.70;2.60;;;20.20;74.90;;;;;;5032183;28;20052;-86
2021/08/06 07:55:53;;;;;;;2.72;2.63;;;20.20;74.90;;;;;;5049802;28;20022;-85
2021/08/06 07:58:20;;;;;;;2.30;2.20;;;20.30;74.70;;;;;;5035457;28;20033;-85
2021/08/06 08:00:46;;;;;;;2.40;2.30;;;20.40;74.60;;;;;;5034847;28;20034;-85
2021/08/06 08:03:12;;;;;;;3.05;2.95;;;20.50;74.40;;;;;;5033179;28;20040;-84
2021/08/06 08:05:38;;;;;;;7.18;2.60;;;20.50;74.20;;;;;;5032094;28;20037;-86
2021/08/06 08:08:04;;;;;;;2.53;2.42;;;20.60;74.10;;;;;;5035887;28;20045;-85
2021/08/06 08:10:30;;;;;;;3.67;3.47;;;20.70;74.00;;;;;;5034343;28;20039;-85
2021/08/06 08:12:57;;;;;;;3.58;3.42;;;20.90;73.70;;;;;;5035049;28;20025;-84
2021/08/06 08:15:23;;;;;;;2.80;2.70;;;20.90;73.40;;;;;;5034625;28;20044;-85
2021/08/06 08:17:49;;;;;;;2.85;2.75;;;21.10;73.30;;;;;;5028524;28;20026;-85
2021/08/06 08:20:15;;;;;;;2.80;2.70;;;21.30;73.10;;;;;;5036656;28;20427;-85
2021/08/06 08:22:41;;;;;;;3.20;3.10;;;21.60;72.50;;;;;;5034599;28;20048;-85
2021/08/06 08:25:08;;;;;;;3.33;3.22;;;21.80;72.00;;;;;;5033683;28;20029;-84
2021/08/06 08:27:34;;;;;;;3.25;3.15;;;21.90;71.80;;;;;;5016122;28;20044;-85
2021/08/06 08:30:01;;;;;;;3.08;2.97;;;21.90;71.70;;;;;;5032315;28;20029;-86
2021/08/06 08:32:27;;;;;;;3.22;3.13;;;21.80;71.80;;;;;;5033560;28;20034;-86
2021/08/06 08:34:53;;;;;;;3.13;3.03;;;21.70;72.00;;;;;;5034515;28;20044;-85
2021/08/06 08:37:19;;;;;;;3.15;3.05;;;21.60;72.20;;;;;;5033370;28;20042;-86
2021/08/06 08:39:45;;;;;;;3.20;3.08;;;21.60;73.10;;;;;;5033570;28;20368;-85
2021/08/06 08:42:11;;;;;;;2.80;2.70;;;21.50;72.30;;;;;;5032083;28;20044;-85
2021/08/06 08:44:38;;;;;;;2.72;2.63;;;21.40;72.50;;;;;;5030375;28;20037;-85
2021/08/06 08:47:05;;;;;;;3.08;2.97;;;21.30;72.50;;;;;;5036288;28;20033;-85
2021/08/06 08:49:34;;;;;;;2.95;2.85;;;21.40;72.60;;;;;;5034783;28;20029;-85
2021/08/06 08:52:00;;;;;;;2.70;2.60;;;21.30;72.50;;;;;;5034416;28;20486;-85
2021/08/06 08:54:26;;;;;;;3.20;3.10;;;21.30;72.50;;;;;;5033613;28;20401;-84
2021/08/06 08:56:52;;;;;;;2.85;2.75;;;21.30;72.40;;;;;;5030936;28;20032;-85
2021/08/06 08:59:18;;;;;;;2.85;2.75;;;21.30;72.30;;;;;;5035793;28;20029;-84
2021/08/06 09:01:45;;;;;;;5.25;2.92;;;21.30;72.30;;;;;;5044729;28;20482;-85
2021/08/06 09:04:24;;;;;;;3.25;3.15;;;21.30;72.20;;;;;;5038651;28;20030;-84
2021/08/06 09:06:50;;;;;;;3.03;2.92;;;21.30;72.00;;;;;;5033197;28;20497;-87
2021/08/06 09:09:21;;;;;;;3.13;2.97;;;21.50;71.80;;;;;;5033001;28;20037;-83
2021/08/06 09:12:01;;;;;;;3.10;3.00;;;21.70;71.40;;;;;;5013755;28;20021;-85
2021/08/06 09:14:28;;;;;;;3.30;3.20;;;21.80;70.90;;;;;;5058764;28;20051;-85
2021/08/06 09:17:02;;;;;;;3.28;3.17;;;22.00;70.80;;;;;;5032643;28;20041;-85
2021/08/06 09:19:30;;;;;;;3.33;3.17;;;22.00;70.60;;;;;;5033391;28;20505;-85
2021/08/06 09:22:21;;;;;;;3.80;3.60;;;22.10;70.50;;;;;;5031945;28;20060;-85
2021/08/06 09:24:59;;;;;;;3.08;2.97;;;22.20;70.40;;;;;;5033601;28;20015;-85
2021/08/06 09:27:27;;;;;;;3.17;3.08;;;22.60;69.90;;;;;;5033387;28;20037;-85
2021/08/06 09:29:55;;;;;;;3.83;3.63;;;22.80;69.40;;;;;;5029026;28;20038;-85
2021/08/06 09:32:24;;;;;;;4.05;3.85;;;23.10;68.80;;;;;;5035156;28;20041;-84
2021/08/06 09:34:50;;;;;;;4.90;4.70;;;23.40;68.30;;;;;;5037276;28;20040;-85
2021/08/06 09:37:18;;;;;;;4.05;3.85;;;23.50;68.00;;;;;;5037844;28;20033;-85
2021/08/06 09:39:52;;;;;;;4.72;4.53;;;23.50;67.80;;;;;;5037580;28;20041;-85
2021/08/06 09:42:35;;;;;;;4.65;4.05;;;23.50;67.80;;;;;;5035846;28;20033;-86
2021/08/06 09:45:05;;;;;;;4.38;4.15;;;23.50;67.90;;;;;;5015757;28;20029;-85
2021/08/06 09:47:33;;;;;;;3.78;3.58;;;23.40;68.10;;;;;;5063380;28;20112;-85
2021/08/06 09:50:01;;;;;;;4.50;4.10;;;23.20;68.10;;;;;;5037364;28;20029;-86
2021/08/06 09:52:38;;;;;;;4.35;4.13;;;23.20;68.30;;;;;;5036561;28;20029;-85
2021/08/06 09:55:05;;;;;;;4.45;4.25;;;23.00;68.60;;;;;;5037672;28;20383;-85
2021/08/06 09:57:31;;;;;;;3.83;3.63;;;22.90;68.70;;;;;;5037504;28;20033;-85
2021/08/06 09:59:58;;;;;;;4.32;4.13;;;23.00;68.70;;;;;;5034430;28;20033;-85
2021/08/06 10:02:31;;;;;;;4.97;4.68;;;23.00;68.40;;;;;;5035748;28;20095;-85
2021/08/06 10:05:13;;;;;;;3.60;3.45;;;23.10;68.30;;;;;;5036952;28;20042;-85
2021/08/06 10:07:49;;;;;;;4.32;4.13;;;23.10;68.20;;;;;;5037517;28;20482;-85
2021/08/06 10:10:23;;;;;;;4.40;4.20;;;23.10;68.20;;;;;;5037299;28;20053;-86
2021/08/06 10:12:49;;;;;;;4.13;3.92;;;23.10;67.90;;;;;;5037039;28;20025;-85
2021/08/06 10:15:16;;;;;;;4.68;4.45;;;23.10;67.90;;;;;;5034776;28;20060;-85
2021/08/06 10:17:42;;;;;;;4.22;4.03;;;23.10;67.90;;;;;;5032843;28;20386;-85
2021/08/06 10:20:12;;;;;;;3.92;3.72;;;23.10;67.90;;;;;;5038990;28;20021;-86
2021/08/06 10:22:39;;;;;;;3.88;3.67;;;23.00;67.90;;;;;;5035545;28;20029;-84
2021/08/06 10:25:06;;;;;;;4.13;3.92;;;23.00;67.90;;;;;;5017922;28;20034;-86
2021/08/06 10:27:33;;;;;;;3.75;3.55;;;23.00;67.90;;;;;;5036507;28;20377;-85
2021/08/06 10:30:20;;;;;;;4.15;3.95;;;23.00;67.80;;;;;;5015757;28;20030;-85
2021/08/06 10:33:12;;;;;;;7.10;3.75;;;23.10;67.70;;;;;;5014631;28;20375;-85
2021/08/06 10:35:51;;;;;;;3.50;3.35;;;23.30;67.40;;;;;;5047565;28;20880;-85
2021/08/06 10:38:40;;;;;;;4.35;4.15;;;23.60;67.00;;;;;;5049358;28;20029;-86
2021/08/06 10:41:14;;;;;;;3.45;3.33;;;23.80;66.40;;;;;;5036740;28;20033;-85
2021/08/06 10:43:41;;;;;;;4.72;4.53;;;24.00;66.00;;;;;;5035987;28;20056;-86
2021/08/06 10:46:08;;;;;;;5.57;5.05;;;24.00;65.80;;;;;;5036083;28;20029;-84
2021/08/06 10:48:38;;;;;;;4.65;4.45;;;24.10;65.70;;;;;;5034847;28;20068;-85
2021/08/06 10:51:16;;;;;;;4.95;4.75;;;24.20;65.50;;;;;;5033092;28;20489;-86
2021/08/06 10:53:51;;;;;;;4.57;4.38;;;24.20;65.50;;;;;;5032563;28;20025;-85
2021/08/06 10:56:17;;;;;;;3.83;3.63;;;24.30;65.40;;;;;;5046138;28;20461;-83
2021/08/06 10:58:50;;;;;;;4.97;4.78;;;24.30;65.20;;;;;;5034748;28;20045;-86
2021/08/06 11:01:28;;;;;;;5.70;5.40;;;24.40;64.90;;;;;;5033699;28;20056;-85
2021/08/06 11:03:58;;;;;;;5.57;5.35;;;24.50;64.80;;;;;;5034958;28;20356;-85
2021/08/06 11:06:34;;;;;;;6.05;5.75;;;24.50;64.60;;;;;;5036226;28;20028;-84
2021/08/06 11:09:04;;;;;;;6.10;5.80;;;24.60;64.40;;;;;;5033524;28;20034;-86
2021/08/06 11:11:58;;;;;;;6.53;6.22;;;24.60;64.10;;;;;;5034132;28;20037;-86
2021/08/06 11:14:30;;;;;;;5.38;5.18;;;24.60;63.90;;;;;;5046220;28;20033;-86
2021/08/06 11:16:59;;;;;;;5.85;5.55;;;24.60;63.80;;;;;;5034779;28;20029;-85
2021/08/06 11:19:32;;;;;;;5.35;5.15;;;24.60;63.90;;;;;;5036013;28;20036;-86
2021/08/06 11:21:59;;;;;;;5.78;5.47;;;24.50;63.60;;;;;;5031261;28;20033;-86
2021/08/06 11:24:25;;;;;;;6.40;6.10;;;24.60;63.50;;;;;;5046891;28;20036;-86
2021/08/06 11:26:51;;;;;;;7.30;6.90;;;24.70;63.20;;;;;;5014350;28;20034;-85
2021/08/06 11:29:18;;;;;;;7.15;6.85;;;24.80;63.00;;;;;;5037334;28;20022;-86
2021/08/06 11:31:44;;;;;;;6.68;6.38;;;25.00;62.60;;;;;;5034235;28;20034;-86
2021/08/06 11:34:10;;;;;;;6.53;6.22;;;25.20;62.20;;;;;;5035558;28;20052;-86
2021/08/06 11:36:36;;;;;;;6.93;6.63;;;25.30;61.60;;;;;;5034463;28;20029;-86
2021/08/06 11:39:13;;;;;;;7.00;6.70;;;25.50;61.40;;;;;;5031675;28;20385;-85
2021/08/06 11:41:55;;;;;;;8.15;7.75;;;25.60;60.90;;;;;;5032171;28;20056;-82
2021/08/06 11:44:21;;;;;;;6.63;6.32;;;25.70;60.60;;;;;;5060550;28;20378;-85
2021/08/06 11:46:51;;;;;;;7.10;6.80;;;25.70;60.40;;;;;;5035344;28;20033;-85
2021/08/06 11:49:18;;;;;;;7.00;6.70;;;25.60;60.40;;;;;;5016082;28;20048;-86
2021/08/06 11:51:51;;;;;;;6.80;6.50;;;25.60;60.40;;;;;;5035415;28;20029;-84
2021/08/06 11:54:17;;;;;;;5.93;5.65;;;25.40;60.40;;;;;;5033807;28;20028;-86
2021/08/06 11:56:44;;;;;;;6.43;6.13;;;25.30;60.60;;;;;;5029709;28;20029;-87
2021/08/06 11:59:10;;;;;;;7.28;6.97;;;25.10;60.80;;;;;;5036888;28;20428;-86
2021/08/06 12:01:36;;;;;;;7.15;6.85;;;25.20;60.90;;;;;;5033724;28;20038;-85
2021/08/06 12:04:02;;;;;;;5.05;4.85;;;25.30;60.60;;;;;;5039925;28;20025;-86
2021/08/06 12:06:29;;;;;;;5.43;5.13;;;25.30;60.50;;;;;;5044197;28;20032;-86
2021/08/06 12:08:58;;;;;;;5.32;5.13;;;25.20;60.40;;;;;;5013668;28;20041;-86
2021/08/06 12:11:26;;;;;;;6.22;5.93;;;25.00;60.60;;;;;;5034923;28;20529;-86
2021/08/06 12:13:54;;;;;;;6.05;5.55;;;24.90;60.70;;;;;;5034775;28;20033;-86
2021/08/06 12:16:29;;;;;;;10.95;5.95;;;25.00;60.60;;;;;;5017144;28;20049;-84
2021/08/06 12:18:57;;;;;;;5.05;4.85;;;25.20;60.10;;;;;;5033478;28;20024;-84
2021/08/06 12:21:28;;;;;;;5.47;5.25;;;25.20;59.90;;;;;;5034184;28;20041;-85
2021/08/06 12:23:57;;;;;;;;;;;25.20;59.80;;;;;;4999660;28;20067;-86
2021/08/06 12:26:45;;;;;;;5.45;5.25;;;25.20;59.80;;;;;;5035062;28;19905;-85
2021/08/06 12:29:14;;;;;;;5.70;5.30;;;25.20;59.80;;;;;;5035222;28;20034;-85
2021/08/06 12:32:00;;;;;;;5.47;5.20;;;25.10;59.90;;;;;;5034372;28;20029;-87
2021/08/06 12:34:36;;;;;;;5.47;5.28;;;25.10;59.80;;;;;;5001885;28;20050;-86
2021/08/06 12:37:03;;;;;;;5.20;5.00;;;25.20;59.80;;;;;;5033876;28;20025;-86
2021/08/06 12:39:31;;;;;;;6.00;5.70;;;25.30;59.70;;;;;;5035061;28;20040;-86
2021/08/06 12:42:18;;;;;;;5.03;4.82;;;25.30;59.50;;;;;;5014126;28;20038;-84
2021/08/06 12:44:57;;;;;;;6.13;5.82;;;25.40;59.30;;;;;;5029618;28;20033;-85
2021/08/06 12:47:24;;;;;;;5.90;5.60;;;25.30;59.20;;;;;;5060531;28;20029;-85
2021/08/06 12:49:58;;;;;;;5.72;5.45;;;25.20;59.30;;;;;;5019165;28;20374;-85
2021/08/06 12:52:29;;;;;;;5.82;5.53;;;25.10;59.50;;;;;;5033556;28;20478;-85
2021/08/06 12:54:55;;;;;;;6.15;5.85;;;24.90;59.50;;;;;;5034672;28;20034;-84